METAR Data
IDs: Format: Raw Decoded Include TAF

Data at: 1152 UTC 23 Sep 2018

KDCA 231052Z 03008KT 10SM BKN023 OVC070 16/14 A3018 RMK AO2 RAE40 SLP218 P0004 T01610139 $
KDCA 231035Z 03008KT 10SM -RA BKN021 BKN045 OVC070 16/14 A3017 RMK AO2 P0004 T01610139 $
KDCA 231027Z 02008KT 10SM -RA SCT021 BKN050 OVC075 16/14 A3018 RMK AO2 P0004 T01610139 $
KDCA 230952Z 02007KT 6SM RA BR OVC022 16/14 A3019 RMK AO2 SLP223 P0006 T01610139 $
KDCA 230852Z 02009KT 8SM RA BKN022 BKN030 OVC039 17/13 A3019 RMK AO2 SLP221 P0003 60008 T01670133 55006 $
KDCA 230843Z 03007KT 10SM -RA SCT026 BKN031 OVC039 17/13 A3018 RMK AO2 P0002 T01670133 $
KDCA 230752Z 03006KT 10SM -RA OVC027 17/13 A3018 RMK AO2 SLP220 P0004 T01670133 $
KDCA 230710Z 02007KT 10SM -RA BKN028 OVC060 17/13 A3019 RMK AO2 P0002 T01720133 $
KDCA 230652Z 05008KT 10SM -RA SCT044 OVC060 17/13 A3019 RMK AO2 RAB01 SLP222 P0001 T01720128 $
KDCA 230552Z 02006KT 10SM FEW029 BKN038 OVC060 18/12 A3020 RMK AO2 SLP226 T01830122 10200 20183 58000 $
KDCA 230452Z 01007KT 10SM FEW110 OVC150 18/12 A3021 RMK AO2 SLP228 T01830117 402670183 $
KDCA 230352Z 02006KT 10SM BKN150 OVC250 18/12 A3021 RMK AO2 SLP230 T01830117 $
KDCA 230252Z 04009KT 10SM SCT075 SCT110 BKN250 19/12 A3020 RMK AO2 SLP227 T01890117 51006 $
KDCA 230152Z 03007KT 10SM FEW075 SCT110 BKN250 19/13 A3020 RMK AO2 SLP226 T01890133 $
KDCA 230052Z 02009KT 10SM FEW070 BKN110 BKN250 19/13 A3020 RMK AO2 SLP227 T01940128 $
KDCA 222352Z 01011KT 10SM FEW065 BKN100 BKN120 BKN250 20/12 A3019 RMK AO2 SLP221 T02000117 10267 20200 51017 $
KDCA 222252Z 03014KT 10SM FEW060 OVC095 21/12 A3017 RMK AO2 SLP216 T02110122 $
KDCA 222152Z 01012KT 10SM FEW055 OVC095 23/15 A3015 RMK AO2 SLP210 T02280150 $
KDCA 222052Z 01010KT 10SM FEW050 SCT100 BKN250 24/16 A3013 RMK AO2 SLP204 T02390156 57004 $
KDCA 221952Z 02010KT 10SM FEW045 BKN100 BKN250 24/14 A3014 RMK AO2 SLP205 T02440144 $
KDCA 221852Z 33011KT 10SM FEW040 BKN110 BKN250 26/15 A3014 RMK AO2 SLP206 T02610150
KDCA 221752Z 02008KT 10SM FEW035 BKN110 BKN250 27/17 A3015 RMK AO2 SLP208 T02670167 10267 20239 50006
KDCA 221652Z 36011KT 10SM FEW030 SCT090 BKN110 BKN250 24/16 A3015 RMK AO2 SLP208 T02440156
KDCA 221552Z 31013KT 10SM SCT090 BKN110 BKN250 25/17 A3013 RMK AO2 SLP204 T02500172
KDCA 221452Z 32011KT 10SM FEW030 BKN090 BKN110 BKN150 25/18 A3013 RMK AO2 SLP202 T02500183 51014
KDCA 221352Z 34010KT 10SM FEW015 SCT100 BKN150 BKN200 25/20 A3012 RMK AO2 SLP198 ACC W T02500200
KDCA 221252Z 34007KT 10SM FEW100 BKN150 BKN200 25/22 A3010 RMK AO2 SLP192 T02500217
KDCA 221152Z 34006KT 10SM FEW026 FEW110 BKN140 BKN200 24/22 A3009 RMK AO2 RAE32 SLP188 P0001 60001 70029 T02390217 10244 20228 51023
KDCA 221052Z 35005KT 10SM -RA FEW014 BKN110 23/21 A3007 RMK AO2 RAE11B19 SLP182 P0000 T02330211
KDCA 221011Z 27004KT 10SM SCT012 BKN055 OVC110 24/21 A3006 RMK AO2 RAE11 P0000 T02390211
KDCA 220952Z 00000KT 10SM -RA OVC012 23/21 A3006 RMK AO2 RAB50 SLP178 P0000 T02330211
KDCA 220910Z 34007KT 10SM BKN011 OVC060 23/21 A3005 RMK AO2 T02330211
KDCA 220906Z 34008KT 10SM SCT011 OVC060 23/21 A3004 RMK AO2 T02330211
KDCA 220852Z 22005KT 10SM FEW060 BKN100 23/21 A3002 RMK AO2 SLP165 T02330211 55004
KDCA 220752Z 18008KT 10SM CLR 23/21 A3000 RMK AO2 SLP160 T02280206
KDCA 220652Z 18008KT 10SM FEW040 FEW120 23/21 A3002 RMK AO2 SLP164 T02280206
KDCA 220552Z 20007KT 10SM FEW040 BKN120 23/21 A3003 RMK AO2 SLP169 T02330206 10244 20233 58009
KDCA 220452Z 20012KT 10SM FEW040 BKN110 24/21 A3004 RMK AO2 SLP172 T02390206 402560200
KDCA 220352Z 19010KT 10SM BKN120 24/21 A3005 RMK AO2 SLP177 T02390206
KDCA 220252Z 19010KT 10SM BKN130 24/21 A3006 RMK AO2 SLP178 T02390206 51011
KDCA 220152Z 19010KT 10SM FEW050 24/20 A3006 RMK AO2 SLP178 T02440200
KDCA 220052Z 18009KT 10SM FEW040 24/21 A3004 RMK AO2 SLP172 T02390206